<?xml version="1.0" encoding="UTF-8" standalone="no" ?>
<gpx xmlns="http://www.topografix.com/GPX/1/1" xmlns:xsi="http://www.w3.org/2001/XMLSchema-instance" xsi:schemaLocation="http://www.topografix.com/GPX/1/1 http://www.topografix.com/GPX/1/1/gpx.xsd" version="1.1" creator="VisuGPX - https://www.visugpx.com">
  <metadata>
    <name>Félines Balade</name>
    <desc><![CDATA[Balade autour du Mont Chaud via Savas]]></desc>
  </metadata>
  <trk>
    <name><![CDATA[Félines Balade]]></name>
    <trkseg>
      <trkpt lat="45.30823" lon="4.70801">
        <ele>525.79998779297</ele>
        <time>2019-09-19T10:51:07.000Z</time>
      </trkpt>
      <trkpt lat="45.30823" lon="4.70798">
        <ele>526</ele>
        <time>2019-09-19T10:51:09.000Z</time>
      </trkpt>
      <trkpt lat="45.30827" lon="4.70774">
        <ele>528</ele>
        <time>2019-09-19T10:51:26.000Z</time>
      </trkpt>
      <trkpt lat="45.30829" lon="4.70767">
        <ele>528.59997558594</ele>
        <time>2019-09-19T10:51:31.000Z</time>
      </trkpt>
      <trkpt lat="45.30831" lon="4.70756">
        <ele>529.79998779297</ele>
        <time>2019-09-19T10:51:39.000Z</time>
      </trkpt>
      <trkpt lat="45.30832" lon="4.70747">
        <ele>530.59997558594</ele>
        <time>2019-09-19T10:51:45.000Z</time>
      </trkpt>
      <trkpt lat="45.30835" lon="4.70739">
        <ele>531.40002441406</ele>
        <time>2019-09-19T10:51:50.000Z</time>
      </trkpt>
      <trkpt lat="45.30839" lon="4.70729">
        <ele>532</ele>
        <time>2019-09-19T10:51:57.000Z</time>
      </trkpt>
      <trkpt lat="45.30843" lon="4.70719">
        <ele>532.40002441406</ele>
        <time>2019-09-19T10:52:03.000Z</time>
      </trkpt>
      <trkpt lat="45.30858" lon="4.70704">
        <ele>531.59997558594</ele>
        <time>2019-09-19T10:52:21.000Z</time>
      </trkpt>
      <trkpt lat="45.30865" lon="4.70699">
        <ele>531.20001220703</ele>
        <time>2019-09-19T10:52:29.000Z</time>
      </trkpt>
      <trkpt lat="45.30878" lon="4.70685">
        <ele>531</ele>
        <time>2019-09-19T10:52:44.000Z</time>
      </trkpt>
      <trkpt lat="45.3088" lon="4.70671">
        <ele>532.79998779297</ele>
        <time>2019-09-19T10:53:11.000Z</time>
      </trkpt>
      <trkpt lat="45.30883" lon="4.70653">
        <ele>535.40002441406</ele>
        <time>2019-09-19T10:53:24.000Z</time>
      </trkpt>
      <trkpt lat="45.30885" lon="4.70645">
        <ele>536.79998779297</ele>
        <time>2019-09-19T10:53:31.000Z</time>
      </trkpt>
      <trkpt lat="45.3089" lon="4.7062">
        <ele>541.20001220703</ele>
        <time>2019-09-19T10:53:49.000Z</time>
      </trkpt>
      <trkpt lat="45.30892" lon="4.70614">
        <ele>542.20001220703</ele>
        <time>2019-09-19T10:53:53.000Z</time>
      </trkpt>
      <trkpt lat="45.30897" lon="4.70602">
        <ele>544.59997558594</ele>
        <time>2019-09-19T10:54:02.000Z</time>
      </trkpt>
      <trkpt lat="45.30902" lon="4.70587">
        <ele>547.40002441406</ele>
        <time>2019-09-19T10:54:11.000Z</time>
      </trkpt>
      <trkpt lat="45.30905" lon="4.70583">
        <ele>548.59997558594</ele>
        <time>2019-09-19T10:54:15.000Z</time>
      </trkpt>
      <trkpt lat="45.30913" lon="4.70575">
        <ele>550.40002441406</ele>
        <time>2019-09-19T10:54:22.000Z</time>
      </trkpt>
      <trkpt lat="45.30919" lon="4.70573">
        <ele>551.59997558594</ele>
        <time>2019-09-19T10:54:30.000Z</time>
      </trkpt>
      <trkpt lat="45.30926" lon="4.70571">
        <ele>552.40002441406</ele>
        <time>2019-09-19T10:54:35.000Z</time>
      </trkpt>
      <trkpt lat="45.30927" lon="4.70571">
        <ele>552.59997558594</ele>
        <time>2019-09-19T10:54:36.000Z</time>
      </trkpt>
      <trkpt lat="45.30936" lon="4.70575">
        <ele>553</ele>
        <time>2019-09-19T10:54:45.000Z</time>
      </trkpt>
      <trkpt lat="45.30943" lon="4.70583">
        <ele>552.40002441406</ele>
        <time>2019-09-19T10:54:52.000Z</time>
      </trkpt>
      <trkpt lat="45.30947" lon="4.70592">
        <ele>551.40002441406</ele>
        <time>2019-09-19T10:54:58.000Z</time>
      </trkpt>
      <trkpt lat="45.3096" lon="4.70611">
        <ele>550</ele>
        <time>2019-09-19T10:55:26.000Z</time>
      </trkpt>
      <trkpt lat="45.30974" lon="4.70629">
        <ele>549.20001220703</ele>
        <time>2019-09-19T10:55:41.000Z</time>
      </trkpt>
      <trkpt lat="45.30975" lon="4.7063">
        <ele>549.20001220703</ele>
        <time>2019-09-19T10:55:42.000Z</time>
      </trkpt>
      <trkpt lat="45.30993" lon="4.70634">
        <ele>551.20001220703</ele>
        <time>2019-09-19T10:55:56.000Z</time>
      </trkpt>
      <trkpt lat="45.31001" lon="4.70633">
        <ele>552.40002441406</ele>
        <time>2019-09-19T10:56:02.000Z</time>
      </trkpt>
      <trkpt lat="45.31006" lon="4.70634">
        <ele>553</ele>
        <time>2019-09-19T10:56:06.000Z</time>
      </trkpt>
      <trkpt lat="45.31011" lon="4.70635">
        <ele>553.40002441406</ele>
        <time>2019-09-19T10:56:10.000Z</time>
      </trkpt>
      <trkpt lat="45.31016" lon="4.70637">
        <ele>553.79998779297</ele>
        <time>2019-09-19T10:56:14.000Z</time>
      </trkpt>
      <trkpt lat="45.31026" lon="4.70641">
        <ele>554.79998779297</ele>
        <time>2019-09-19T10:56:22.000Z</time>
      </trkpt>
      <trkpt lat="45.31031" lon="4.70643">
        <ele>555.20001220703</ele>
        <time>2019-09-19T10:56:25.000Z</time>
      </trkpt>
      <trkpt lat="45.31048" lon="4.70656">
        <ele>556</ele>
        <time>2019-09-19T10:56:41.000Z</time>
      </trkpt>
      <trkpt lat="45.31054" lon="4.70663">
        <ele>556.20001220703</ele>
        <time>2019-09-19T10:56:47.000Z</time>
      </trkpt>
      <trkpt lat="45.31059" lon="4.7067">
        <ele>556.40002441406</ele>
        <time>2019-09-19T10:56:53.000Z</time>
      </trkpt>
      <trkpt lat="45.31073" lon="4.70677">
        <ele>557.79998779297</ele>
        <time>2019-09-19T10:57:05.000Z</time>
      </trkpt>
      <trkpt lat="45.31091" lon="4.70676">
        <ele>561.20001220703</ele>
        <time>2019-09-19T10:57:21.000Z</time>
      </trkpt>
      <trkpt lat="45.31109" lon="4.70679">
        <ele>564</ele>
        <time>2019-09-19T10:57:37.000Z</time>
      </trkpt>
      <trkpt lat="45.31114" lon="4.70684">
        <ele>564.20001220703</ele>
        <time>2019-09-19T10:57:42.000Z</time>
      </trkpt>
      <trkpt lat="45.31121" lon="4.70699">
        <ele>563.79998779297</ele>
        <time>2019-09-19T10:57:52.000Z</time>
      </trkpt>
      <trkpt lat="45.31122" lon="4.70703">
        <ele>563.59997558594</ele>
        <time>2019-09-19T10:57:54.000Z</time>
      </trkpt>
      <trkpt lat="45.31128" lon="4.70729">
        <ele>563</ele>
        <time>2019-09-19T10:58:08.000Z</time>
      </trkpt>
      <trkpt lat="45.31129" lon="4.70756">
        <ele>561.59997558594</ele>
        <time>2019-09-19T10:58:23.000Z</time>
      </trkpt>
      <trkpt lat="45.31129" lon="4.70758">
        <ele>561.59997558594</ele>
        <time>2019-09-19T10:58:24.000Z</time>
      </trkpt>
      <trkpt lat="45.31131" lon="4.70767">
        <ele>561.20001220703</ele>
        <time>2019-09-19T10:58:29.000Z</time>
      </trkpt>
      <trkpt lat="45.31139" lon="4.70792">
        <ele>559.40002441406</ele>
        <time>2019-09-19T10:58:45.000Z</time>
      </trkpt>
      <trkpt lat="45.31155" lon="4.70802">
        <ele>558.20001220703</ele>
        <time>2019-09-19T10:59:02.000Z</time>
      </trkpt>
      <trkpt lat="45.31173" lon="4.708">
        <ele>559</ele>
        <time>2019-09-19T10:59:17.000Z</time>
      </trkpt>
      <trkpt lat="45.31191" lon="4.7079">
        <ele>561</ele>
        <time>2019-09-19T10:59:35.000Z</time>
      </trkpt>
      <trkpt lat="45.31208" lon="4.70776">
        <ele>562.79998779297</ele>
        <time>2019-09-19T10:59:53.000Z</time>
      </trkpt>
      <trkpt lat="45.31225" lon="4.70766">
        <ele>562.59997558594</ele>
        <time>2019-09-19T11:00:12.000Z</time>
      </trkpt>
      <trkpt lat="45.31237" lon="4.70747">
        <ele>563</ele>
        <time>2019-09-19T11:00:29.000Z</time>
      </trkpt>
      <trkpt lat="45.31248" lon="4.70726">
        <ele>564</ele>
        <time>2019-09-19T11:00:46.000Z</time>
      </trkpt>
      <trkpt lat="45.31252" lon="4.70701">
        <ele>566.40002441406</ele>
        <time>2019-09-19T11:01:03.000Z</time>
      </trkpt>
      <trkpt lat="45.31243" lon="4.70678">
        <ele>569</ele>
        <time>2019-09-19T11:01:21.000Z</time>
      </trkpt>
      <trkpt lat="45.31231" lon="4.70657">
        <ele>571.59997558594</ele>
        <time>2019-09-19T11:01:38.000Z</time>
      </trkpt>
      <trkpt lat="45.31225" lon="4.70632">
        <ele>574</ele>
        <time>2019-09-19T11:01:55.000Z</time>
      </trkpt>
      <trkpt lat="45.31223" lon="4.70606">
        <ele>576.20001220703</ele>
        <time>2019-09-19T11:02:13.000Z</time>
      </trkpt>
      <trkpt lat="45.31223" lon="4.7058">
        <ele>577.59997558594</ele>
        <time>2019-09-19T11:02:29.000Z</time>
      </trkpt>
      <trkpt lat="45.31222" lon="4.70554">
        <ele>579.40002441406</ele>
        <time>2019-09-19T11:02:45.000Z</time>
      </trkpt>
      <trkpt lat="45.31221" lon="4.7053">
        <ele>580.59997558594</ele>
        <time>2019-09-19T11:02:59.000Z</time>
      </trkpt>
      <trkpt lat="45.31217" lon="4.70497">
        <ele>582.20001220703</ele>
        <time>2019-09-19T11:03:18.000Z</time>
      </trkpt>
      <trkpt lat="45.3121" lon="4.70472">
        <ele>583.20001220703</ele>
        <time>2019-09-19T11:03:34.000Z</time>
      </trkpt>
      <trkpt lat="45.31203" lon="4.70451">
        <ele>584</ele>
        <time>2019-09-19T11:03:49.000Z</time>
      </trkpt>
      <trkpt lat="45.31193" lon="4.70428">
        <ele>584.20001220703</ele>
        <time>2019-09-19T11:04:06.000Z</time>
      </trkpt>
      <trkpt lat="45.31181" lon="4.70409">
        <ele>584.20001220703</ele>
        <time>2019-09-19T11:04:22.000Z</time>
      </trkpt>
      <trkpt lat="45.31169" lon="4.70388">
        <ele>584.20001220703</ele>
        <time>2019-09-19T11:04:37.000Z</time>
      </trkpt>
      <trkpt lat="45.31159" lon="4.70366">
        <ele>584.20001220703</ele>
        <time>2019-09-19T11:04:53.000Z</time>
      </trkpt>
      <trkpt lat="45.3115" lon="4.70344">
        <ele>584.20001220703</ele>
        <time>2019-09-19T11:05:08.000Z</time>
      </trkpt>
      <trkpt lat="45.3114" lon="4.70321">
        <ele>584.20001220703</ele>
        <time>2019-09-19T11:05:23.000Z</time>
      </trkpt>
      <trkpt lat="45.3113" lon="4.703">
        <ele>584.20001220703</ele>
        <time>2019-09-19T11:05:38.000Z</time>
      </trkpt>
      <trkpt lat="45.3112" lon="4.70277">
        <ele>585</ele>
        <time>2019-09-19T11:05:54.000Z</time>
      </trkpt>
      <trkpt lat="45.31119" lon="4.70276">
        <ele>585</ele>
        <time>2019-09-19T11:05:55.000Z</time>
      </trkpt>
      <trkpt lat="45.31115" lon="4.70269">
        <ele>585.40002441406</ele>
        <time>2019-09-19T11:06:01.000Z</time>
      </trkpt>
      <trkpt lat="45.31114" lon="4.70268">
        <ele>585.40002441406</ele>
        <time>2019-09-19T11:06:07.000Z</time>
      </trkpt>
      <trkpt lat="45.31106" lon="4.70246">
        <ele>585.40002441406</ele>
        <time>2019-09-19T11:06:24.000Z</time>
      </trkpt>
      <trkpt lat="45.31103" lon="4.70228">
        <ele>585</ele>
        <time>2019-09-19T11:06:36.000Z</time>
      </trkpt>
      <trkpt lat="45.31101" lon="4.7022">
        <ele>585</ele>
        <time>2019-09-19T11:06:42.000Z</time>
      </trkpt>
      <trkpt lat="45.31095" lon="4.70203">
        <ele>585</ele>
        <time>2019-09-19T11:06:54.000Z</time>
      </trkpt>
      <trkpt lat="45.31087" lon="4.7018">
        <ele>585.40002441406</ele>
        <time>2019-09-19T11:07:10.000Z</time>
      </trkpt>
      <trkpt lat="45.31088" lon="4.70173">
        <ele>585</ele>
        <time>2019-09-19T11:07:14.000Z</time>
      </trkpt>
      <trkpt lat="45.31079" lon="4.70153">
        <ele>585.59997558594</ele>
        <time>2019-09-19T11:07:56.000Z</time>
      </trkpt>
      <trkpt lat="45.31074" lon="4.70129">
        <ele>583.59997558594</ele>
        <time>2019-09-19T11:08:12.000Z</time>
      </trkpt>
      <trkpt lat="45.3107" lon="4.70111">
        <ele>582.79998779297</ele>
        <time>2019-09-19T11:08:22.000Z</time>
      </trkpt>
      <trkpt lat="45.31068" lon="4.70107">
        <ele>583</ele>
        <time>2019-09-19T11:08:25.000Z</time>
      </trkpt>
      <trkpt lat="45.31062" lon="4.70082">
        <ele>582.59997558594</ele>
        <time>2019-09-19T11:08:50.000Z</time>
      </trkpt>
      <trkpt lat="45.31057" lon="4.70066">
        <ele>582.79998779297</ele>
        <time>2019-09-19T11:09:00.000Z</time>
      </trkpt>
      <trkpt lat="45.31052" lon="4.70046">
        <ele>582.40002441406</ele>
        <time>2019-09-19T11:09:12.000Z</time>
      </trkpt>
      <trkpt lat="45.31049" lon="4.70037">
        <ele>582.59997558594</ele>
        <time>2019-09-19T11:09:18.000Z</time>
      </trkpt>
      <trkpt lat="45.31046" lon="4.7003">
        <ele>582.59997558594</ele>
        <time>2019-09-19T11:09:23.000Z</time>
      </trkpt>
      <trkpt lat="45.31039" lon="4.70012">
        <ele>583</ele>
        <time>2019-09-19T11:09:34.000Z</time>
      </trkpt>
      <trkpt lat="45.31034" lon="4.70002">
        <ele>583.40002441406</ele>
        <time>2019-09-19T11:09:41.000Z</time>
      </trkpt>
      <trkpt lat="45.31029" lon="4.69993">
        <ele>583.79998779297</ele>
        <time>2019-09-19T11:09:47.000Z</time>
      </trkpt>
      <trkpt lat="45.31022" lon="4.69975">
        <ele>584.20001220703</ele>
        <time>2019-09-19T11:09:59.000Z</time>
      </trkpt>
      <trkpt lat="45.31019" lon="4.6997">
        <ele>584.40002441406</ele>
        <time>2019-09-19T11:10:02.000Z</time>
      </trkpt>
      <trkpt lat="45.3101" lon="4.69947">
        <ele>584.59997558594</ele>
        <time>2019-09-19T11:10:18.000Z</time>
      </trkpt>
      <trkpt lat="45.31006" lon="4.69923">
        <ele>583.40002441406</ele>
        <time>2019-09-19T11:10:43.000Z</time>
      </trkpt>
      <trkpt lat="45.30996" lon="4.69901">
        <ele>583.79998779297</ele>
        <time>2019-09-19T11:11:02.000Z</time>
      </trkpt>
      <trkpt lat="45.30987" lon="4.69877">
        <ele>582.79998779297</ele>
        <time>2019-09-19T11:11:18.000Z</time>
      </trkpt>
      <trkpt lat="45.30986" lon="4.69876">
        <ele>583</ele>
        <time>2019-09-19T11:11:19.000Z</time>
      </trkpt>
      <trkpt lat="45.30979" lon="4.69853">
        <ele>582.59997558594</ele>
        <time>2019-09-19T11:11:37.000Z</time>
      </trkpt>
      <trkpt lat="45.30968" lon="4.69831">
        <ele>583.40002441406</ele>
        <time>2019-09-19T11:11:56.000Z</time>
      </trkpt>
      <trkpt lat="45.30961" lon="4.69805">
        <ele>583.20001220703</ele>
        <time>2019-09-19T11:12:13.000Z</time>
      </trkpt>
      <trkpt lat="45.3096" lon="4.69799">
        <ele>583.20001220703</ele>
        <time>2019-09-19T11:12:17.000Z</time>
      </trkpt>
      <trkpt lat="45.30957" lon="4.69793">
        <ele>583.59997558594</ele>
        <time>2019-09-19T11:12:21.000Z</time>
      </trkpt>
      <trkpt lat="45.30955" lon="4.69785">
        <ele>583.59997558594</ele>
        <time>2019-09-19T11:12:26.000Z</time>
      </trkpt>
      <trkpt lat="45.30944" lon="4.69765">
        <ele>586.40002441406</ele>
        <time>2019-09-19T11:12:41.000Z</time>
      </trkpt>
      <trkpt lat="45.30937" lon="4.69752">
        <ele>587.79998779297</ele>
        <time>2019-09-19T11:12:51.000Z</time>
      </trkpt>
      <trkpt lat="45.30933" lon="4.69743">
        <ele>588.59997558594</ele>
        <time>2019-09-19T11:12:58.000Z</time>
      </trkpt>
      <trkpt lat="45.30931" lon="4.69734">
        <ele>588.40002441406</ele>
        <time>2019-09-19T11:13:05.000Z</time>
      </trkpt>
      <trkpt lat="45.30921" lon="4.69712">
        <ele>590.40002441406</ele>
        <time>2019-09-19T11:13:22.000Z</time>
      </trkpt>
      <trkpt lat="45.3091" lon="4.69691">
        <ele>593</ele>
        <time>2019-09-19T11:13:40.000Z</time>
      </trkpt>
      <trkpt lat="45.309" lon="4.6966">
        <ele>594.20001220703</ele>
        <time>2019-09-19T11:14:00.000Z</time>
      </trkpt>
      <trkpt lat="45.30894" lon="4.69635">
        <ele>594.59997558594</ele>
        <time>2019-09-19T11:14:15.000Z</time>
      </trkpt>
      <trkpt lat="45.30891" lon="4.69629">
        <ele>595.40002441406</ele>
        <time>2019-09-19T11:14:19.000Z</time>
      </trkpt>
      <trkpt lat="45.30887" lon="4.6962">
        <ele>596</ele>
        <time>2019-09-19T11:14:24.000Z</time>
      </trkpt>
      <trkpt lat="45.30885" lon="4.69611">
        <ele>596.59997558594</ele>
        <time>2019-09-19T11:14:29.000Z</time>
      </trkpt>
      <trkpt lat="45.30883" lon="4.69605">
        <ele>597.20001220703</ele>
        <time>2019-09-19T11:14:34.000Z</time>
      </trkpt>
      <trkpt lat="45.30879" lon="4.6958">
        <ele>597.59997558594</ele>
        <time>2019-09-19T11:14:51.000Z</time>
      </trkpt>
      <trkpt lat="45.30873" lon="4.69549">
        <ele>598.79998779297</ele>
        <time>2019-09-19T11:15:09.000Z</time>
      </trkpt>
      <trkpt lat="45.30871" lon="4.69524">
        <ele>597.79998779297</ele>
        <time>2019-09-19T11:15:24.000Z</time>
      </trkpt>
      <trkpt lat="45.30873" lon="4.69498">
        <ele>596</ele>
        <time>2019-09-19T11:15:37.000Z</time>
      </trkpt>
      <trkpt lat="45.30871" lon="4.69472">
        <ele>595.79998779297</ele>
        <time>2019-09-19T11:15:53.000Z</time>
      </trkpt>
      <trkpt lat="45.30864" lon="4.69448">
        <ele>596.79998779297</ele>
        <time>2019-09-19T11:16:09.000Z</time>
      </trkpt>
      <trkpt lat="45.30852" lon="4.69421">
        <ele>596.79998779297</ele>
        <time>2019-09-19T11:16:30.000Z</time>
      </trkpt>
      <trkpt lat="45.30849" lon="4.69415">
        <ele>596.79998779297</ele>
        <time>2019-09-19T11:16:35.000Z</time>
      </trkpt>
      <trkpt lat="45.30845" lon="4.6941">
        <ele>597.40002441406</ele>
        <time>2019-09-19T11:16:39.000Z</time>
      </trkpt>
      <trkpt lat="45.30834" lon="4.69388">
        <ele>597.79998779297</ele>
        <time>2019-09-19T11:16:56.000Z</time>
      </trkpt>
      <trkpt lat="45.30819" lon="4.69373">
        <ele>600.79998779297</ele>
        <time>2019-09-19T11:17:14.000Z</time>
      </trkpt>
      <trkpt lat="45.30804" lon="4.69357">
        <ele>603</ele>
        <time>2019-09-19T11:17:31.000Z</time>
      </trkpt>
      <trkpt lat="45.30792" lon="4.69336">
        <ele>603.20001220703</ele>
        <time>2019-09-19T11:17:48.000Z</time>
      </trkpt>
      <trkpt lat="45.30777" lon="4.69319">
        <ele>605</ele>
        <time>2019-09-19T11:18:04.000Z</time>
      </trkpt>
      <trkpt lat="45.30764" lon="4.69301">
        <ele>606.20001220703</ele>
        <time>2019-09-19T11:18:20.000Z</time>
      </trkpt>
      <trkpt lat="45.30748" lon="4.69286">
        <ele>608.79998779297</ele>
        <time>2019-09-19T11:18:35.000Z</time>
      </trkpt>
      <trkpt lat="45.30732" lon="4.69263">
        <ele>613.20001220703</ele>
        <time>2019-09-19T11:18:54.000Z</time>
      </trkpt>
      <trkpt lat="45.30729" lon="4.69256">
        <ele>614</ele>
        <time>2019-09-19T11:18:59.000Z</time>
      </trkpt>
      <trkpt lat="45.30727" lon="4.69252">
        <ele>614.20001220703</ele>
        <time>2019-09-19T11:19:02.000Z</time>
      </trkpt>
      <trkpt lat="45.30726" lon="4.69246">
        <ele>614.40002441406</ele>
        <time>2019-09-19T11:19:06.000Z</time>
      </trkpt>
      <trkpt lat="45.30723" lon="4.69236">
        <ele>614.59997558594</ele>
        <time>2019-09-19T11:19:12.000Z</time>
      </trkpt>
      <trkpt lat="45.30723" lon="4.6923">
        <ele>614.40002441406</ele>
        <time>2019-09-19T11:19:16.000Z</time>
      </trkpt>
      <trkpt lat="45.30721" lon="4.69219">
        <ele>614.40002441406</ele>
        <time>2019-09-19T11:19:23.000Z</time>
      </trkpt>
      <trkpt lat="45.30721" lon="4.69193">
        <ele>613.20001220703</ele>
        <time>2019-09-19T11:19:38.000Z</time>
      </trkpt>
      <trkpt lat="45.30726" lon="4.69169">
        <ele>612.20001220703</ele>
        <time>2019-09-19T11:19:51.000Z</time>
      </trkpt>
      <trkpt lat="45.30726" lon="4.69162">
        <ele>612.40002441406</ele>
        <time>2019-09-19T11:19:55.000Z</time>
      </trkpt>
      <trkpt lat="45.30727" lon="4.69154">
        <ele>612</ele>
        <time>2019-09-19T11:20:00.000Z</time>
      </trkpt>
      <trkpt lat="45.3073" lon="4.69144">
        <ele>611.40002441406</ele>
        <time>2019-09-19T11:20:06.000Z</time>
      </trkpt>
      <trkpt lat="45.30735" lon="4.69119">
        <ele>611.59997558594</ele>
        <time>2019-09-19T11:20:19.000Z</time>
      </trkpt>
      <trkpt lat="45.30737" lon="4.69094">
        <ele>613.20001220703</ele>
        <time>2019-09-19T11:20:34.000Z</time>
      </trkpt>
      <trkpt lat="45.3074" lon="4.69069">
        <ele>614.79998779297</ele>
        <time>2019-09-19T11:20:49.000Z</time>
      </trkpt>
      <trkpt lat="45.30743" lon="4.69055">
        <ele>616.40002441406</ele>
        <time>2019-09-19T11:20:56.000Z</time>
      </trkpt>
      <trkpt lat="45.30746" lon="4.69039">
        <ele>619.79998779297</ele>
        <time>2019-09-19T11:21:05.000Z</time>
      </trkpt>
      <trkpt lat="45.30748" lon="4.69027">
        <ele>620.20001220703</ele>
        <time>2019-09-19T11:21:14.000Z</time>
      </trkpt>
      <trkpt lat="45.30749" lon="4.69021">
        <ele>620.40002441406</ele>
        <time>2019-09-19T11:21:18.000Z</time>
      </trkpt>
      <trkpt lat="45.30754" lon="4.69005">
        <ele>619.79998779297</ele>
        <time>2019-09-19T11:21:28.000Z</time>
      </trkpt>
      <trkpt lat="45.30754" lon="4.69003">
        <ele>619.79998779297</ele>
        <time>2019-09-19T11:21:29.000Z</time>
      </trkpt>
      <trkpt lat="45.30762" lon="4.68979">
        <ele>620.79998779297</ele>
        <time>2019-09-19T11:21:45.000Z</time>
      </trkpt>
      <trkpt lat="45.30766" lon="4.68954">
        <ele>623</ele>
        <time>2019-09-19T11:22:03.000Z</time>
      </trkpt>
      <trkpt lat="45.30769" lon="4.68936">
        <ele>622.20001220703</ele>
        <time>2019-09-19T11:22:15.000Z</time>
      </trkpt>
      <trkpt lat="45.30769" lon="4.68932">
        <ele>622.20001220703</ele>
        <time>2019-09-19T11:22:17.000Z</time>
      </trkpt>
      <trkpt lat="45.30772" lon="4.68906">
        <ele>622.40002441406</ele>
        <time>2019-09-19T11:22:32.000Z</time>
      </trkpt>
      <trkpt lat="45.30769" lon="4.6888">
        <ele>623.59997558594</ele>
        <time>2019-09-19T11:22:50.000Z</time>
      </trkpt>
      <trkpt lat="45.30763" lon="4.68857">
        <ele>623.79998779297</ele>
        <time>2019-09-19T11:23:06.000Z</time>
      </trkpt>
      <trkpt lat="45.3076" lon="4.68831">
        <ele>622.79998779297</ele>
        <time>2019-09-19T11:23:22.000Z</time>
      </trkpt>
      <trkpt lat="45.30759" lon="4.68805">
        <ele>622.20001220703</ele>
        <time>2019-09-19T11:23:39.000Z</time>
      </trkpt>
      <trkpt lat="45.30764" lon="4.68779">
        <ele>621</ele>
        <time>2019-09-19T11:23:55.000Z</time>
      </trkpt>
      <trkpt lat="45.30771" lon="4.68755">
        <ele>618.79998779297</ele>
        <time>2019-09-19T11:24:10.000Z</time>
      </trkpt>
      <trkpt lat="45.30784" lon="4.68736">
        <ele>617.20001220703</ele>
        <time>2019-09-19T11:24:27.000Z</time>
      </trkpt>
      <trkpt lat="45.30801" lon="4.68716">
        <ele>614.79998779297</ele>
        <time>2019-09-19T11:24:48.000Z</time>
      </trkpt>
      <trkpt lat="45.30811" lon="4.68697">
        <ele>611</ele>
        <time>2019-09-19T11:25:27.000Z</time>
      </trkpt>
      <trkpt lat="45.30812" lon="4.68672">
        <ele>609.40002441406</ele>
        <time>2019-09-19T11:26:20.000Z</time>
      </trkpt>
      <trkpt lat="45.30811" lon="4.68646">
        <ele>608.59997558594</ele>
        <time>2019-09-19T11:26:49.000Z</time>
      </trkpt>
      <trkpt lat="45.30808" lon="4.68616">
        <ele>608.20001220703</ele>
        <time>2019-09-19T11:27:15.000Z</time>
      </trkpt>
      <trkpt lat="45.30798" lon="4.68596">
        <ele>611.59997558594</ele>
        <time>2019-09-19T11:27:36.000Z</time>
      </trkpt>
      <trkpt lat="45.3078" lon="4.68597">
        <ele>612.59997558594</ele>
        <time>2019-09-19T11:27:56.000Z</time>
      </trkpt>
      <trkpt lat="45.30775" lon="4.68601">
        <ele>612.79998779297</ele>
        <time>2019-09-19T11:28:04.000Z</time>
      </trkpt>
      <trkpt lat="45.30775" lon="4.68601">
        <ele>612.79998779297</ele>
        <time>2019-09-19T11:28:06.000Z</time>
      </trkpt>
      <trkpt lat="45.30769" lon="4.68601">
        <ele>613</ele>
        <time>2019-09-19T11:28:16.000Z</time>
      </trkpt>
      <trkpt lat="45.30769" lon="4.68601">
        <ele>613</ele>
        <time>2019-09-19T11:28:21.000Z</time>
      </trkpt>
      <trkpt lat="45.30759" lon="4.68605">
        <ele>613.40002441406</ele>
        <time>2019-09-19T11:28:35.000Z</time>
      </trkpt>
      <trkpt lat="45.30752" lon="4.68604">
        <ele>613.79998779297</ele>
        <time>2019-09-19T11:28:41.000Z</time>
      </trkpt>
      <trkpt lat="45.30733" lon="4.686">
        <ele>614.79998779297</ele>
        <time>2019-09-19T11:28:58.000Z</time>
      </trkpt>
      <trkpt lat="45.30726" lon="4.68598">
        <ele>615.20001220703</ele>
        <time>2019-09-19T11:29:05.000Z</time>
      </trkpt>
      <trkpt lat="45.30721" lon="4.68597">
        <ele>615.40002441406</ele>
        <time>2019-09-19T11:29:11.000Z</time>
      </trkpt>
      <trkpt lat="45.30702" lon="4.68597">
        <ele>614.79998779297</ele>
        <time>2019-09-19T11:29:26.000Z</time>
      </trkpt>
      <trkpt lat="45.30684" lon="4.68594">
        <ele>613.20001220703</ele>
        <time>2019-09-19T11:29:42.000Z</time>
      </trkpt>
      <trkpt lat="45.30671" lon="4.68593">
        <ele>612.40002441406</ele>
        <time>2019-09-19T11:29:54.000Z</time>
      </trkpt>
      <trkpt lat="45.30664" lon="4.68593">
        <ele>612</ele>
        <time>2019-09-19T11:29:59.000Z</time>
      </trkpt>
      <trkpt lat="45.30659" lon="4.68593">
        <ele>611.79998779297</ele>
        <time>2019-09-19T11:30:04.000Z</time>
      </trkpt>
      <trkpt lat="45.30658" lon="4.68593">
        <ele>611.59997558594</ele>
        <time>2019-09-19T11:30:05.000Z</time>
      </trkpt>
      <trkpt lat="45.30649" lon="4.68592">
        <ele>611.20001220703</ele>
        <time>2019-09-19T11:30:13.000Z</time>
      </trkpt>
      <trkpt lat="45.3063" lon="4.68591">
        <ele>610</ele>
        <time>2019-09-19T11:30:30.000Z</time>
      </trkpt>
      <trkpt lat="45.30622" lon="4.6859">
        <ele>609.20001220703</ele>
        <time>2019-09-19T11:30:38.000Z</time>
      </trkpt>
      <trkpt lat="45.30606" lon="4.68588">
        <ele>607.40002441406</ele>
        <time>2019-09-19T11:30:55.000Z</time>
      </trkpt>
      <trkpt lat="45.30588" lon="4.68582">
        <ele>605.40002441406</ele>
        <time>2019-09-19T11:31:24.000Z</time>
      </trkpt>
      <trkpt lat="45.3057" lon="4.68576">
        <ele>603.20001220703</ele>
        <time>2019-09-19T11:31:42.000Z</time>
      </trkpt>
      <trkpt lat="45.3056" lon="4.68574">
        <ele>602.20001220703</ele>
        <time>2019-09-19T11:31:52.000Z</time>
      </trkpt>
      <trkpt lat="45.30548" lon="4.68571">
        <ele>600.79998779297</ele>
        <time>2019-09-19T11:32:04.000Z</time>
      </trkpt>
      <trkpt lat="45.3053" lon="4.68566">
        <ele>598.20001220703</ele>
        <time>2019-09-19T11:32:21.000Z</time>
      </trkpt>
      <trkpt lat="45.30514" lon="4.68565">
        <ele>596</ele>
        <time>2019-09-19T11:32:37.000Z</time>
      </trkpt>
      <trkpt lat="45.30508" lon="4.68568">
        <ele>595</ele>
        <time>2019-09-19T11:32:43.000Z</time>
      </trkpt>
      <trkpt lat="45.30507" lon="4.68568">
        <ele>594.79998779297</ele>
        <time>2019-09-19T11:32:45.000Z</time>
      </trkpt>
      <trkpt lat="45.30503" lon="4.68572">
        <ele>594.20001220703</ele>
        <time>2019-09-19T11:32:50.000Z</time>
      </trkpt>
      <trkpt lat="45.30487" lon="4.68585">
        <ele>591.20001220703</ele>
        <time>2019-09-19T11:33:09.000Z</time>
      </trkpt>
      <trkpt lat="45.30482" lon="4.68589">
        <ele>590.20001220703</ele>
        <time>2019-09-19T11:33:14.000Z</time>
      </trkpt>
      <trkpt lat="45.30479" lon="4.68591">
        <ele>589.59997558594</ele>
        <time>2019-09-19T11:33:18.000Z</time>
      </trkpt>
      <trkpt lat="45.30462" lon="4.68604">
        <ele>586.40002441406</ele>
        <time>2019-09-19T11:33:35.000Z</time>
      </trkpt>
      <trkpt lat="45.30451" lon="4.68609">
        <ele>585</ele>
        <time>2019-09-19T11:33:45.000Z</time>
      </trkpt>
      <trkpt lat="45.30444" lon="4.68606">
        <ele>584.40002441406</ele>
        <time>2019-09-19T11:33:50.000Z</time>
      </trkpt>
      <trkpt lat="45.30442" lon="4.68605">
        <ele>584.20001220703</ele>
        <time>2019-09-19T11:33:52.000Z</time>
      </trkpt>
      <trkpt lat="45.30437" lon="4.68602">
        <ele>583.59997558594</ele>
        <time>2019-09-19T11:33:57.000Z</time>
      </trkpt>
      <trkpt lat="45.30433" lon="4.68596">
        <ele>583.40002441406</ele>
        <time>2019-09-19T11:34:03.000Z</time>
      </trkpt>
      <trkpt lat="45.30425" lon="4.68591">
        <ele>582.79998779297</ele>
        <time>2019-09-19T11:34:12.000Z</time>
      </trkpt>
      <trkpt lat="45.3041" lon="4.68577">
        <ele>581.40002441406</ele>
        <time>2019-09-19T11:34:27.000Z</time>
      </trkpt>
      <trkpt lat="45.30407" lon="4.68575">
        <ele>581.20001220703</ele>
        <time>2019-09-19T11:34:31.000Z</time>
      </trkpt>
      <trkpt lat="45.30389" lon="4.68567">
        <ele>579.40002441406</ele>
        <time>2019-09-19T11:34:46.000Z</time>
      </trkpt>
      <trkpt lat="45.30371" lon="4.68562">
        <ele>578.20001220703</ele>
        <time>2019-09-19T11:35:04.000Z</time>
      </trkpt>
      <trkpt lat="45.30353" lon="4.68561">
        <ele>577.79998779297</ele>
        <time>2019-09-19T11:35:18.000Z</time>
      </trkpt>
      <trkpt lat="45.30347" lon="4.68561">
        <ele>577.79998779297</ele>
        <time>2019-09-19T11:35:23.000Z</time>
      </trkpt>
      <trkpt lat="45.30329" lon="4.68559">
        <ele>577.40002441406</ele>
        <time>2019-09-19T11:35:39.000Z</time>
      </trkpt>
      <trkpt lat="45.30312" lon="4.68558">
        <ele>576.79998779297</ele>
        <time>2019-09-19T11:35:53.000Z</time>
      </trkpt>
      <trkpt lat="45.30294" lon="4.68556">
        <ele>575.79998779297</ele>
        <time>2019-09-19T11:36:09.000Z</time>
      </trkpt>
      <trkpt lat="45.30275" lon="4.68555">
        <ele>575.79998779297</ele>
        <time>2019-09-19T11:36:26.000Z</time>
      </trkpt>
      <trkpt lat="45.30257" lon="4.68552">
        <ele>575.79998779297</ele>
        <time>2019-09-19T11:36:42.000Z</time>
      </trkpt>
      <trkpt lat="45.30238" lon="4.68547">
        <ele>576.20001220703</ele>
        <time>2019-09-19T11:36:58.000Z</time>
      </trkpt>
      <trkpt lat="45.3022" lon="4.68541">
        <ele>576.59997558594</ele>
        <time>2019-09-19T11:37:13.000Z</time>
      </trkpt>
      <trkpt lat="45.30215" lon="4.68538">
        <ele>576.79998779297</ele>
        <time>2019-09-19T11:37:22.000Z</time>
      </trkpt>
      <trkpt lat="45.30198" lon="4.68532">
        <ele>577.59997558594</ele>
        <time>2019-09-19T11:37:42.000Z</time>
      </trkpt>
      <trkpt lat="45.30185" lon="4.68527">
        <ele>578.40002441406</ele>
        <time>2019-09-19T11:37:54.000Z</time>
      </trkpt>
      <trkpt lat="45.3017" lon="4.68524">
        <ele>578.79998779297</ele>
        <time>2019-09-19T11:38:07.000Z</time>
      </trkpt>
      <trkpt lat="45.3016" lon="4.68523">
        <ele>578.79998779297</ele>
        <time>2019-09-19T11:38:16.000Z</time>
      </trkpt>
      <trkpt lat="45.30142" lon="4.68519">
        <ele>579.20001220703</ele>
        <time>2019-09-19T11:38:32.000Z</time>
      </trkpt>
      <trkpt lat="45.30123" lon="4.6851">
        <ele>579.79998779297</ele>
        <time>2019-09-19T11:38:49.000Z</time>
      </trkpt>
      <trkpt lat="45.3011" lon="4.685">
        <ele>579.79998779297</ele>
        <time>2019-09-19T11:39:08.000Z</time>
      </trkpt>
      <trkpt lat="45.30104" lon="4.68496">
        <ele>580</ele>
        <time>2019-09-19T11:39:15.000Z</time>
      </trkpt>
      <trkpt lat="45.30095" lon="4.6849">
        <ele>579.79998779297</ele>
        <time>2019-09-19T11:39:25.000Z</time>
      </trkpt>
      <trkpt lat="45.30078" lon="4.68481">
        <ele>579</ele>
        <time>2019-09-19T11:39:42.000Z</time>
      </trkpt>
      <trkpt lat="45.3006" lon="4.68473">
        <ele>578.40002441406</ele>
        <time>2019-09-19T11:39:59.000Z</time>
      </trkpt>
      <trkpt lat="45.30042" lon="4.68469">
        <ele>577.40002441406</ele>
        <time>2019-09-19T11:40:20.000Z</time>
      </trkpt>
      <trkpt lat="45.3004" lon="4.68469">
        <ele>577.20001220703</ele>
        <time>2019-09-19T11:40:23.000Z</time>
      </trkpt>
      <trkpt lat="45.30035" lon="4.6847">
        <ele>576.79998779297</ele>
        <time>2019-09-19T11:40:28.000Z</time>
      </trkpt>
      <trkpt lat="45.30014" lon="4.68465">
        <ele>575.59997558594</ele>
        <time>2019-09-19T11:40:49.000Z</time>
      </trkpt>
      <trkpt lat="45.29996" lon="4.68461">
        <ele>574.59997558594</ele>
        <time>2019-09-19T11:41:05.000Z</time>
      </trkpt>
      <trkpt lat="45.29978" lon="4.68454">
        <ele>574.20001220703</ele>
        <time>2019-09-19T11:41:20.000Z</time>
      </trkpt>
      <trkpt lat="45.29962" lon="4.68441">
        <ele>574.79998779297</ele>
        <time>2019-09-19T11:41:35.000Z</time>
      </trkpt>
      <trkpt lat="45.29946" lon="4.68429">
        <ele>575</ele>
        <time>2019-09-19T11:41:51.000Z</time>
      </trkpt>
      <trkpt lat="45.29934" lon="4.68419">
        <ele>575.20001220703</ele>
        <time>2019-09-19T11:42:03.000Z</time>
      </trkpt>
      <trkpt lat="45.29927" lon="4.68412">
        <ele>575.40002441406</ele>
        <time>2019-09-19T11:42:10.000Z</time>
      </trkpt>
      <trkpt lat="45.29912" lon="4.68396">
        <ele>576.40002441406</ele>
        <time>2019-09-19T11:42:26.000Z</time>
      </trkpt>
      <trkpt lat="45.29902" lon="4.68385">
        <ele>577.20001220703</ele>
        <time>2019-09-19T11:42:38.000Z</time>
      </trkpt>
      <trkpt lat="45.29901" lon="4.68391">
        <ele>576</ele>
        <time>2019-09-19T11:42:45.000Z</time>
      </trkpt>
      <trkpt lat="45.29902" lon="4.68394">
        <ele>575.59997558594</ele>
        <time>2019-09-19T11:42:47.000Z</time>
      </trkpt>
      <trkpt lat="45.29905" lon="4.68401">
        <ele>575.20001220703</ele>
        <time>2019-09-19T11:42:54.000Z</time>
      </trkpt>
      <trkpt lat="45.29907" lon="4.68407">
        <ele>574.59997558594</ele>
        <time>2019-09-19T11:42:59.000Z</time>
      </trkpt>
      <trkpt lat="45.29908" lon="4.68414">
        <ele>573.59997558594</ele>
        <time>2019-09-19T11:43:04.000Z</time>
      </trkpt>
      <trkpt lat="45.29906" lon="4.68428">
        <ele>572</ele>
        <time>2019-09-19T11:43:14.000Z</time>
      </trkpt>
      <trkpt lat="45.29902" lon="4.68437">
        <ele>570.59997558594</ele>
        <time>2019-09-19T11:43:21.000Z</time>
      </trkpt>
      <trkpt lat="45.29897" lon="4.68453">
        <ele>568.20001220703</ele>
        <time>2019-09-19T11:43:36.000Z</time>
      </trkpt>
      <trkpt lat="45.29891" lon="4.68461">
        <ele>567</ele>
        <time>2019-09-19T11:43:48.000Z</time>
      </trkpt>
      <trkpt lat="45.29877" lon="4.68476">
        <ele>563.79998779297</ele>
        <time>2019-09-19T11:44:16.000Z</time>
      </trkpt>
      <trkpt lat="45.29863" lon="4.68488">
        <ele>561</ele>
        <time>2019-09-19T11:44:34.000Z</time>
      </trkpt>
      <trkpt lat="45.29858" lon="4.685">
        <ele>559</ele>
        <time>2019-09-19T11:44:45.000Z</time>
      </trkpt>
      <trkpt lat="45.29847" lon="4.68521">
        <ele>555.40002441406</ele>
        <time>2019-09-19T11:45:05.000Z</time>
      </trkpt>
      <trkpt lat="45.29841" lon="4.68543">
        <ele>552.79998779297</ele>
        <time>2019-09-19T11:45:24.000Z</time>
      </trkpt>
      <trkpt lat="45.29842" lon="4.68548">
        <ele>552.59997558594</ele>
        <time>2019-09-19T11:45:28.000Z</time>
      </trkpt>
      <trkpt lat="45.29841" lon="4.68552">
        <ele>552.20001220703</ele>
        <time>2019-09-19T11:45:32.000Z</time>
      </trkpt>
      <trkpt lat="45.29833" lon="4.68575">
        <ele>550.20001220703</ele>
        <time>2019-09-19T11:45:58.000Z</time>
      </trkpt>
      <trkpt lat="45.29832" lon="4.68578">
        <ele>550</ele>
        <time>2019-09-19T11:46:00.000Z</time>
      </trkpt>
      <trkpt lat="45.29825" lon="4.68601">
        <ele>547.59997558594</ele>
        <time>2019-09-19T11:46:18.000Z</time>
      </trkpt>
      <trkpt lat="45.29817" lon="4.68623">
        <ele>545.40002441406</ele>
        <time>2019-09-19T11:46:40.000Z</time>
      </trkpt>
      <trkpt lat="45.29807" lon="4.68645">
        <ele>543.20001220703</ele>
        <time>2019-09-19T11:46:56.000Z</time>
      </trkpt>
      <trkpt lat="45.29797" lon="4.68667">
        <ele>541.20001220703</ele>
        <time>2019-09-19T11:47:13.000Z</time>
      </trkpt>
      <trkpt lat="45.29795" lon="4.68677">
        <ele>540.40002441406</ele>
        <time>2019-09-19T11:47:21.000Z</time>
      </trkpt>
      <trkpt lat="45.29789" lon="4.68687">
        <ele>539.40002441406</ele>
        <time>2019-09-19T11:47:29.000Z</time>
      </trkpt>
      <trkpt lat="45.29781" lon="4.68703">
        <ele>538</ele>
        <time>2019-09-19T11:47:43.000Z</time>
      </trkpt>
      <trkpt lat="45.29783" lon="4.68695">
        <ele>538.59997558594</ele>
        <time>2019-09-19T11:47:51.000Z</time>
      </trkpt>
      <trkpt lat="45.29776" lon="4.68717">
        <ele>537.20001220703</ele>
        <time>2019-09-19T11:48:11.000Z</time>
      </trkpt>
      <trkpt lat="45.2977" lon="4.68728">
        <ele>536.40002441406</ele>
        <time>2019-09-19T11:48:36.000Z</time>
      </trkpt>
      <trkpt lat="45.29767" lon="4.68734">
        <ele>536.20001220703</ele>
        <time>2019-09-19T11:48:40.000Z</time>
      </trkpt>
      <trkpt lat="45.29759" lon="4.68758">
        <ele>534.59997558594</ele>
        <time>2019-09-19T11:48:55.000Z</time>
      </trkpt>
      <trkpt lat="45.29759" lon="4.68759">
        <ele>534.59997558594</ele>
        <time>2019-09-19T11:48:56.000Z</time>
      </trkpt>
      <trkpt lat="45.29755" lon="4.68772">
        <ele>533.59997558594</ele>
        <time>2019-09-19T11:49:04.000Z</time>
      </trkpt>
      <trkpt lat="45.29746" lon="4.68797">
        <ele>533</ele>
        <time>2019-09-19T11:49:19.000Z</time>
      </trkpt>
      <trkpt lat="45.29742" lon="4.68806">
        <ele>533.20001220703</ele>
        <time>2019-09-19T11:49:25.000Z</time>
      </trkpt>
      <trkpt lat="45.29731" lon="4.68826">
        <ele>534</ele>
        <time>2019-09-19T11:49:38.000Z</time>
      </trkpt>
      <trkpt lat="45.29728" lon="4.68828">
        <ele>533.79998779297</ele>
        <time>2019-09-19T11:49:41.000Z</time>
      </trkpt>
      <trkpt lat="45.29711" lon="4.68832">
        <ele>533.20001220703</ele>
        <time>2019-09-19T11:49:55.000Z</time>
      </trkpt>
      <trkpt lat="45.29692" lon="4.68837">
        <ele>533</ele>
        <time>2019-09-19T11:50:09.000Z</time>
      </trkpt>
      <trkpt lat="45.29674" lon="4.68844">
        <ele>532.59997558594</ele>
        <time>2019-09-19T11:50:25.000Z</time>
      </trkpt>
      <trkpt lat="45.29657" lon="4.68855">
        <ele>531.59997558594</ele>
        <time>2019-09-19T11:50:41.000Z</time>
      </trkpt>
      <trkpt lat="45.29643" lon="4.68872">
        <ele>531</ele>
        <time>2019-09-19T11:50:58.000Z</time>
      </trkpt>
      <trkpt lat="45.29631" lon="4.68892">
        <ele>531.59997558594</ele>
        <time>2019-09-19T11:51:14.000Z</time>
      </trkpt>
      <trkpt lat="45.29619" lon="4.68911">
        <ele>532.59997558594</ele>
        <time>2019-09-19T11:51:30.000Z</time>
      </trkpt>
      <trkpt lat="45.29607" lon="4.68919">
        <ele>532.59997558594</ele>
        <time>2019-09-19T11:51:39.000Z</time>
      </trkpt>
      <trkpt lat="45.29593" lon="4.68924">
        <ele>532.40002441406</ele>
        <time>2019-09-19T11:51:52.000Z</time>
      </trkpt>
      <trkpt lat="45.29589" lon="4.68941">
        <ele>533.40002441406</ele>
        <time>2019-09-19T11:52:08.000Z</time>
      </trkpt>
      <trkpt lat="45.2959" lon="4.68952">
        <ele>534</ele>
        <time>2019-09-19T11:52:15.000Z</time>
      </trkpt>
      <trkpt lat="45.29594" lon="4.68965">
        <ele>534.79998779297</ele>
        <time>2019-09-19T11:52:25.000Z</time>
      </trkpt>
      <trkpt lat="45.29595" lon="4.68971">
        <ele>535.20001220703</ele>
        <time>2019-09-19T11:52:29.000Z</time>
      </trkpt>
      <trkpt lat="45.29606" lon="4.68992">
        <ele>536.79998779297</ele>
        <time>2019-09-19T11:52:47.000Z</time>
      </trkpt>
      <trkpt lat="45.29616" lon="4.69014">
        <ele>538.20001220703</ele>
        <time>2019-09-19T11:53:05.000Z</time>
      </trkpt>
      <trkpt lat="45.2962" lon="4.69022">
        <ele>538.79998779297</ele>
        <time>2019-09-19T11:53:11.000Z</time>
      </trkpt>
      <trkpt lat="45.29622" lon="4.69028">
        <ele>539.20001220703</ele>
        <time>2019-09-19T11:53:15.000Z</time>
      </trkpt>
      <trkpt lat="45.29628" lon="4.6904">
        <ele>540.20001220703</ele>
        <time>2019-09-19T11:53:26.000Z</time>
      </trkpt>
      <trkpt lat="45.29635" lon="4.69053">
        <ele>541.79998779297</ele>
        <time>2019-09-19T11:53:36.000Z</time>
      </trkpt>
      <trkpt lat="45.29646" lon="4.69074">
        <ele>544.40002441406</ele>
        <time>2019-09-19T11:53:52.000Z</time>
      </trkpt>
      <trkpt lat="45.29647" lon="4.69076">
        <ele>544.79998779297</ele>
        <time>2019-09-19T11:53:54.000Z</time>
      </trkpt>
      <trkpt lat="45.29652" lon="4.69101">
        <ele>547</ele>
        <time>2019-09-19T11:54:12.000Z</time>
      </trkpt>
      <trkpt lat="45.29652" lon="4.69102">
        <ele>547.20001220703</ele>
        <time>2019-09-19T11:54:13.000Z</time>
      </trkpt>
      <trkpt lat="45.29654" lon="4.69128">
        <ele>549.20001220703</ele>
        <time>2019-09-19T11:54:30.000Z</time>
      </trkpt>
      <trkpt lat="45.29655" lon="4.69132">
        <ele>549.40002441406</ele>
        <time>2019-09-19T11:54:33.000Z</time>
      </trkpt>
      <trkpt lat="45.29654" lon="4.6914">
        <ele>549.79998779297</ele>
        <time>2019-09-19T11:54:39.000Z</time>
      </trkpt>
      <trkpt lat="45.29653" lon="4.69142">
        <ele>549.79998779297</ele>
        <time>2019-09-19T11:54:41.000Z</time>
      </trkpt>
      <trkpt lat="45.29637" lon="4.6914">
        <ele>548.20001220703</ele>
        <time>2019-09-19T11:55:04.000Z</time>
      </trkpt>
      <trkpt lat="45.29631" lon="4.69135">
        <ele>547.40002441406</ele>
        <time>2019-09-19T11:56:05.000Z</time>
      </trkpt>
      <trkpt lat="45.29645" lon="4.69145">
        <ele>549.40002441406</ele>
        <time>2019-09-19T11:56:19.000Z</time>
      </trkpt>
      <trkpt lat="45.2964" lon="4.69169">
        <ele>551</ele>
        <time>2019-09-19T11:56:41.000Z</time>
      </trkpt>
      <trkpt lat="45.29642" lon="4.69195">
        <ele>553.40002441406</ele>
        <time>2019-09-19T11:56:57.000Z</time>
      </trkpt>
      <trkpt lat="45.29646" lon="4.69221">
        <ele>555.20001220703</ele>
        <time>2019-09-19T11:57:25.000Z</time>
      </trkpt>
      <trkpt lat="45.29649" lon="4.69247">
        <ele>556.79998779297</ele>
        <time>2019-09-19T11:57:44.000Z</time>
      </trkpt>
      <trkpt lat="45.29649" lon="4.69273">
        <ele>558</ele>
        <time>2019-09-19T11:58:01.000Z</time>
      </trkpt>
      <trkpt lat="45.29645" lon="4.69299">
        <ele>559</ele>
        <time>2019-09-19T11:58:19.000Z</time>
      </trkpt>
      <trkpt lat="45.29645" lon="4.69301">
        <ele>559.20001220703</ele>
        <time>2019-09-19T11:58:20.000Z</time>
      </trkpt>
      <trkpt lat="45.29647" lon="4.69302">
        <ele>559.40002441406</ele>
        <time>2019-09-19T11:58:22.000Z</time>
      </trkpt>
      <trkpt lat="45.29633" lon="4.69305">
        <ele>558.59997558594</ele>
        <time>2019-09-19T12:00:21.000Z</time>
      </trkpt>
      <trkpt lat="45.29632" lon="4.69306">
        <ele>558.59997558594</ele>
        <time>2019-09-19T12:00:23.000Z</time>
      </trkpt>
      <trkpt lat="45.29626" lon="4.69308">
        <ele>558.20001220703</ele>
        <time>2019-09-19T12:01:26.000Z</time>
      </trkpt>
      <trkpt lat="45.29636" lon="4.69306">
        <ele>558.79998779297</ele>
        <time>2019-09-19T12:01:44.000Z</time>
      </trkpt>
      <trkpt lat="45.29641" lon="4.69328">
        <ele>560.79998779297</ele>
        <time>2019-09-19T12:02:13.000Z</time>
      </trkpt>
      <trkpt lat="45.29646" lon="4.69354">
        <ele>563</ele>
        <time>2019-09-19T12:02:34.000Z</time>
      </trkpt>
      <trkpt lat="45.29647" lon="4.69379">
        <ele>564.79998779297</ele>
        <time>2019-09-19T12:02:56.000Z</time>
      </trkpt>
      <trkpt lat="45.29643" lon="4.69394">
        <ele>566</ele>
        <time>2019-09-19T12:03:09.000Z</time>
      </trkpt>
      <trkpt lat="45.29642" lon="4.69399">
        <ele>566.40002441406</ele>
        <time>2019-09-19T12:03:13.000Z</time>
      </trkpt>
      <trkpt lat="45.29631" lon="4.6942">
        <ele>567.79998779297</ele>
        <time>2019-09-19T12:03:33.000Z</time>
      </trkpt>
      <trkpt lat="45.2962" lon="4.69441">
        <ele>568.59997558594</ele>
        <time>2019-09-19T12:03:50.000Z</time>
      </trkpt>
      <trkpt lat="45.29612" lon="4.69457">
        <ele>568.79998779297</ele>
        <time>2019-09-19T12:04:04.000Z</time>
      </trkpt>
      <trkpt lat="45.296" lon="4.6948">
        <ele>570.59997558594</ele>
        <time>2019-09-19T12:04:24.000Z</time>
      </trkpt>
      <trkpt lat="45.29589" lon="4.69501">
        <ele>572</ele>
        <time>2019-09-19T12:04:42.000Z</time>
      </trkpt>
      <trkpt lat="45.29582" lon="4.69525">
        <ele>574</ele>
        <time>2019-09-19T12:05:00.000Z</time>
      </trkpt>
      <trkpt lat="45.29579" lon="4.69537">
        <ele>575</ele>
        <time>2019-09-19T12:05:10.000Z</time>
      </trkpt>
      <trkpt lat="45.29578" lon="4.69543">
        <ele>576.20001220703</ele>
        <time>2019-09-19T12:05:15.000Z</time>
      </trkpt>
      <trkpt lat="45.2957" lon="4.69566">
        <ele>579.79998779297</ele>
        <time>2019-09-19T12:05:43.000Z</time>
      </trkpt>
      <trkpt lat="45.29565" lon="4.69596">
        <ele>584.20001220703</ele>
        <time>2019-09-19T12:06:14.000Z</time>
      </trkpt>
      <trkpt lat="45.29567" lon="4.69621">
        <ele>589.20001220703</ele>
        <time>2019-09-19T12:06:44.000Z</time>
      </trkpt>
      <trkpt lat="45.29566" lon="4.69646">
        <ele>594.40002441406</ele>
        <time>2019-09-19T12:07:07.000Z</time>
      </trkpt>
      <trkpt lat="45.29564" lon="4.69671">
        <ele>598.79998779297</ele>
        <time>2019-09-19T12:07:27.000Z</time>
      </trkpt>
      <trkpt lat="45.29557" lon="4.69701">
        <ele>603</ele>
        <time>2019-09-19T12:07:53.000Z</time>
      </trkpt>
      <trkpt lat="45.29555" lon="4.69727">
        <ele>606</ele>
        <time>2019-09-19T12:08:13.000Z</time>
      </trkpt>
      <trkpt lat="45.29552" lon="4.69747">
        <ele>607.79998779297</ele>
        <time>2019-09-19T12:08:30.000Z</time>
      </trkpt>
      <trkpt lat="45.29548" lon="4.69773">
        <ele>609.79998779297</ele>
        <time>2019-09-19T12:08:50.000Z</time>
      </trkpt>
      <trkpt lat="45.29544" lon="4.69796">
        <ele>611.40002441406</ele>
        <time>2019-09-19T12:09:11.000Z</time>
      </trkpt>
      <trkpt lat="45.29543" lon="4.69818">
        <ele>613.79998779297</ele>
        <time>2019-09-19T12:09:50.000Z</time>
      </trkpt>
      <trkpt lat="45.29544" lon="4.69845">
        <ele>617.40002441406</ele>
        <time>2019-09-19T12:10:07.000Z</time>
      </trkpt>
      <trkpt lat="45.29544" lon="4.6987">
        <ele>620.20001220703</ele>
        <time>2019-09-19T12:10:27.000Z</time>
      </trkpt>
      <trkpt lat="45.29546" lon="4.69896">
        <ele>623.79998779297</ele>
        <time>2019-09-19T12:10:53.000Z</time>
      </trkpt>
      <trkpt lat="45.29545" lon="4.69927">
        <ele>627.20001220703</ele>
        <time>2019-09-19T12:11:18.000Z</time>
      </trkpt>
      <trkpt lat="45.29538" lon="4.6995">
        <ele>628</ele>
        <time>2019-09-19T12:11:40.000Z</time>
      </trkpt>
      <trkpt lat="45.29528" lon="4.69973">
        <ele>627.79998779297</ele>
        <time>2019-09-19T12:12:06.000Z</time>
      </trkpt>
      <trkpt lat="45.29528" lon="4.69974">
        <ele>627.79998779297</ele>
        <time>2019-09-19T12:12:08.000Z</time>
      </trkpt>
      <trkpt lat="45.29517" lon="4.69994">
        <ele>627.20001220703</ele>
        <time>2019-09-19T12:12:27.000Z</time>
      </trkpt>
      <trkpt lat="45.29508" lon="4.70016">
        <ele>628.20001220703</ele>
        <time>2019-09-19T12:12:49.000Z</time>
      </trkpt>
      <trkpt lat="45.29495" lon="4.7004">
        <ele>629.20001220703</ele>
        <time>2019-09-19T12:13:13.000Z</time>
      </trkpt>
      <trkpt lat="45.29484" lon="4.7006">
        <ele>628.20001220703</ele>
        <time>2019-09-19T12:13:35.000Z</time>
      </trkpt>
      <trkpt lat="45.29473" lon="4.7008">
        <ele>630</ele>
        <time>2019-09-19T12:13:58.000Z</time>
      </trkpt>
      <trkpt lat="45.29465" lon="4.70104">
        <ele>632.59997558594</ele>
        <time>2019-09-19T12:14:20.000Z</time>
      </trkpt>
      <trkpt lat="45.29465" lon="4.7013">
        <ele>635.79998779297</ele>
        <time>2019-09-19T12:14:40.000Z</time>
      </trkpt>
      <trkpt lat="45.29465" lon="4.7015">
        <ele>636.79998779297</ele>
        <time>2019-09-19T12:14:58.000Z</time>
      </trkpt>
      <trkpt lat="45.29467" lon="4.70172">
        <ele>638.40002441406</ele>
        <time>2019-09-19T12:15:31.000Z</time>
      </trkpt>
      <trkpt lat="45.29481" lon="4.70186">
        <ele>640.20001220703</ele>
        <time>2019-09-19T12:15:52.000Z</time>
      </trkpt>
      <trkpt lat="45.29499" lon="4.70195">
        <ele>642</ele>
        <time>2019-09-19T12:16:16.000Z</time>
      </trkpt>
      <trkpt lat="45.29519" lon="4.70203">
        <ele>644</ele>
        <time>2019-09-19T12:16:44.000Z</time>
      </trkpt>
      <trkpt lat="45.29519" lon="4.70227">
        <ele>642.79998779297</ele>
        <time>2019-09-19T12:17:12.000Z</time>
      </trkpt>
      <trkpt lat="45.29519" lon="4.70251">
        <ele>641.59997558594</ele>
        <time>2019-09-19T12:17:31.000Z</time>
      </trkpt>
      <trkpt lat="45.29517" lon="4.70267">
        <ele>640.79998779297</ele>
        <time>2019-09-19T12:17:43.000Z</time>
      </trkpt>
      <trkpt lat="45.29518" lon="4.70275">
        <ele>640.59997558594</ele>
        <time>2019-09-19T12:17:52.000Z</time>
      </trkpt>
      <trkpt lat="45.29521" lon="4.70287">
        <ele>640.20001220703</ele>
        <time>2019-09-19T12:18:51.000Z</time>
      </trkpt>
      <trkpt lat="45.29521" lon="4.70313">
        <ele>638.20001220703</ele>
        <time>2019-09-19T12:19:09.000Z</time>
      </trkpt>
      <trkpt lat="45.29517" lon="4.70338">
        <ele>636.20001220703</ele>
        <time>2019-09-19T12:19:26.000Z</time>
      </trkpt>
      <trkpt lat="45.29508" lon="4.70368">
        <ele>634.59997558594</ele>
        <time>2019-09-19T12:19:49.000Z</time>
      </trkpt>
      <trkpt lat="45.295" lon="4.70392">
        <ele>632.59997558594</ele>
        <time>2019-09-19T12:20:03.000Z</time>
      </trkpt>
      <trkpt lat="45.29496" lon="4.70418">
        <ele>630.79998779297</ele>
        <time>2019-09-19T12:20:18.000Z</time>
      </trkpt>
      <trkpt lat="45.29493" lon="4.70443">
        <ele>630</ele>
        <time>2019-09-19T12:20:32.000Z</time>
      </trkpt>
      <trkpt lat="45.29492" lon="4.70452">
        <ele>629.79998779297</ele>
        <time>2019-09-19T12:20:38.000Z</time>
      </trkpt>
      <trkpt lat="45.2949" lon="4.70474">
        <ele>627</ele>
        <time>2019-09-19T12:20:53.000Z</time>
      </trkpt>
      <trkpt lat="45.29483" lon="4.705">
        <ele>625.40002441406</ele>
        <time>2019-09-19T12:21:30.000Z</time>
      </trkpt>
      <trkpt lat="45.29476" lon="4.70524">
        <ele>624.59997558594</ele>
        <time>2019-09-19T12:21:52.000Z</time>
      </trkpt>
      <trkpt lat="45.29466" lon="4.70546">
        <ele>623.20001220703</ele>
        <time>2019-09-19T12:22:08.000Z</time>
      </trkpt>
      <trkpt lat="45.29462" lon="4.70551">
        <ele>622.79998779297</ele>
        <time>2019-09-19T12:22:13.000Z</time>
      </trkpt>
      <trkpt lat="45.29454" lon="4.70553">
        <ele>622.20001220703</ele>
        <time>2019-09-19T12:22:19.000Z</time>
      </trkpt>
      <trkpt lat="45.29445" lon="4.70551">
        <ele>622.20001220703</ele>
        <time>2019-09-19T12:22:26.000Z</time>
      </trkpt>
      <trkpt lat="45.29431" lon="4.70556">
        <ele>620.59997558594</ele>
        <time>2019-09-19T12:22:41.000Z</time>
      </trkpt>
      <trkpt lat="45.29425" lon="4.70556">
        <ele>620.40002441406</ele>
        <time>2019-09-19T12:22:49.000Z</time>
      </trkpt>
      <trkpt lat="45.29407" lon="4.70548">
        <ele>620.59997558594</ele>
        <time>2019-09-19T12:23:11.000Z</time>
      </trkpt>
      <trkpt lat="45.2939" lon="4.7054">
        <ele>621</ele>
        <time>2019-09-19T12:23:29.000Z</time>
      </trkpt>
      <trkpt lat="45.29391" lon="4.70556">
        <ele>619.20001220703</ele>
        <time>2019-09-19T12:24:21.000Z</time>
      </trkpt>
      <trkpt lat="45.29407" lon="4.70582">
        <ele>617</ele>
        <time>2019-09-19T12:24:48.000Z</time>
      </trkpt>
      <trkpt lat="45.29424" lon="4.7059">
        <ele>616</ele>
        <time>2019-09-19T12:25:07.000Z</time>
      </trkpt>
      <trkpt lat="45.29443" lon="4.70592">
        <ele>616</ele>
        <time>2019-09-19T12:25:24.000Z</time>
      </trkpt>
      <trkpt lat="45.29447" lon="4.70593">
        <ele>616.20001220703</ele>
        <time>2019-09-19T12:25:28.000Z</time>
      </trkpt>
      <trkpt lat="45.29465" lon="4.70589">
        <ele>617.20001220703</ele>
        <time>2019-09-19T12:25:49.000Z</time>
      </trkpt>
      <trkpt lat="45.29482" lon="4.70579">
        <ele>616</ele>
        <time>2019-09-19T12:26:09.000Z</time>
      </trkpt>
      <trkpt lat="45.29498" lon="4.70569">
        <ele>615.20001220703</ele>
        <time>2019-09-19T12:26:26.000Z</time>
      </trkpt>
      <trkpt lat="45.29514" lon="4.70558">
        <ele>616.20001220703</ele>
        <time>2019-09-19T12:26:41.000Z</time>
      </trkpt>
      <trkpt lat="45.29531" lon="4.70547">
        <ele>617.20001220703</ele>
        <time>2019-09-19T12:26:57.000Z</time>
      </trkpt>
      <trkpt lat="45.29534" lon="4.70545">
        <ele>617.20001220703</ele>
        <time>2019-09-19T12:27:00.000Z</time>
      </trkpt>
      <trkpt lat="45.29551" lon="4.70535">
        <ele>618</ele>
        <time>2019-09-19T12:27:17.000Z</time>
      </trkpt>
      <trkpt lat="45.29569" lon="4.70531">
        <ele>617.20001220703</ele>
        <time>2019-09-19T12:27:36.000Z</time>
      </trkpt>
      <trkpt lat="45.29587" lon="4.70538">
        <ele>614.79998779297</ele>
        <time>2019-09-19T12:27:54.000Z</time>
      </trkpt>
      <trkpt lat="45.29606" lon="4.70539">
        <ele>613.40002441406</ele>
        <time>2019-09-19T12:28:11.000Z</time>
      </trkpt>
      <trkpt lat="45.29624" lon="4.70544">
        <ele>611.40002441406</ele>
        <time>2019-09-19T12:28:32.000Z</time>
      </trkpt>
      <trkpt lat="45.29642" lon="4.70544">
        <ele>610.79998779297</ele>
        <time>2019-09-19T12:28:50.000Z</time>
      </trkpt>
      <trkpt lat="45.2966" lon="4.70547">
        <ele>609.59997558594</ele>
        <time>2019-09-19T12:29:07.000Z</time>
      </trkpt>
      <trkpt lat="45.29677" lon="4.70556">
        <ele>608</ele>
        <time>2019-09-19T12:29:21.000Z</time>
      </trkpt>
      <trkpt lat="45.29691" lon="4.70572">
        <ele>605.59997558594</ele>
        <time>2019-09-19T12:29:36.000Z</time>
      </trkpt>
      <trkpt lat="45.29706" lon="4.70589">
        <ele>603</ele>
        <time>2019-09-19T12:29:52.000Z</time>
      </trkpt>
      <trkpt lat="45.29721" lon="4.70604">
        <ele>601.20001220703</ele>
        <time>2019-09-19T12:30:08.000Z</time>
      </trkpt>
      <trkpt lat="45.29729" lon="4.7061">
        <ele>601</ele>
        <time>2019-09-19T12:30:17.000Z</time>
      </trkpt>
      <trkpt lat="45.29733" lon="4.70615">
        <ele>600.59997558594</ele>
        <time>2019-09-19T12:30:23.000Z</time>
      </trkpt>
      <trkpt lat="45.2975" lon="4.70624">
        <ele>600.40002441406</ele>
        <time>2019-09-19T12:30:43.000Z</time>
      </trkpt>
      <trkpt lat="45.29768" lon="4.70633">
        <ele>600.59997558594</ele>
        <time>2019-09-19T12:31:01.000Z</time>
      </trkpt>
      <trkpt lat="45.29786" lon="4.7064">
        <ele>600.79998779297</ele>
        <time>2019-09-19T12:31:18.000Z</time>
      </trkpt>
      <trkpt lat="45.29806" lon="4.70651">
        <ele>599.79998779297</ele>
        <time>2019-09-19T12:31:43.000Z</time>
      </trkpt>
      <trkpt lat="45.29823" lon="4.70656">
        <ele>598</ele>
        <time>2019-09-19T12:32:00.000Z</time>
      </trkpt>
      <trkpt lat="45.2984" lon="4.70645">
        <ele>599</ele>
        <time>2019-09-19T12:32:20.000Z</time>
      </trkpt>
      <trkpt lat="45.29856" lon="4.70632">
        <ele>601</ele>
        <time>2019-09-19T12:32:39.000Z</time>
      </trkpt>
      <trkpt lat="45.29871" lon="4.70621">
        <ele>602.79998779297</ele>
        <time>2019-09-19T12:32:55.000Z</time>
      </trkpt>
      <trkpt lat="45.2989" lon="4.70624">
        <ele>601.20001220703</ele>
        <time>2019-09-19T12:33:11.000Z</time>
      </trkpt>
      <trkpt lat="45.29912" lon="4.7064">
        <ele>597</ele>
        <time>2019-09-19T12:33:31.000Z</time>
      </trkpt>
      <trkpt lat="45.29924" lon="4.70658">
        <ele>593.59997558594</ele>
        <time>2019-09-19T12:33:47.000Z</time>
      </trkpt>
      <trkpt lat="45.29939" lon="4.70673">
        <ele>590.20001220703</ele>
        <time>2019-09-19T12:34:04.000Z</time>
      </trkpt>
      <trkpt lat="45.29954" lon="4.70665">
        <ele>588.79998779297</ele>
        <time>2019-09-19T12:34:25.000Z</time>
      </trkpt>
      <trkpt lat="45.29967" lon="4.70647">
        <ele>590</ele>
        <time>2019-09-19T12:34:48.000Z</time>
      </trkpt>
      <trkpt lat="45.29983" lon="4.7064">
        <ele>593.59997558594</ele>
        <time>2019-09-19T12:35:08.000Z</time>
      </trkpt>
      <trkpt lat="45.29999" lon="4.70652">
        <ele>595</ele>
        <time>2019-09-19T12:35:22.000Z</time>
      </trkpt>
      <trkpt lat="45.30007" lon="4.70674">
        <ele>594.79998779297</ele>
        <time>2019-09-19T12:35:37.000Z</time>
      </trkpt>
      <trkpt lat="45.30017" lon="4.70698">
        <ele>594.20001220703</ele>
        <time>2019-09-19T12:35:53.000Z</time>
      </trkpt>
      <trkpt lat="45.30031" lon="4.70715">
        <ele>595.20001220703</ele>
        <time>2019-09-19T12:36:11.000Z</time>
      </trkpt>
      <trkpt lat="45.30046" lon="4.70731">
        <ele>596.40002441406</ele>
        <time>2019-09-19T12:36:29.000Z</time>
      </trkpt>
      <trkpt lat="45.30057" lon="4.70751">
        <ele>596.79998779297</ele>
        <time>2019-09-19T12:36:50.000Z</time>
      </trkpt>
      <trkpt lat="45.30064" lon="4.70782">
        <ele>595.59997558594</ele>
        <time>2019-09-19T12:37:10.000Z</time>
      </trkpt>
      <trkpt lat="45.30071" lon="4.70806">
        <ele>593.59997558594</ele>
        <time>2019-09-19T12:37:28.000Z</time>
      </trkpt>
      <trkpt lat="45.30077" lon="4.7083">
        <ele>591.79998779297</ele>
        <time>2019-09-19T12:37:46.000Z</time>
      </trkpt>
      <trkpt lat="45.30081" lon="4.70839">
        <ele>591.40002441406</ele>
        <time>2019-09-19T12:37:51.000Z</time>
      </trkpt>
      <trkpt lat="45.30083" lon="4.70846">
        <ele>591</ele>
        <time>2019-09-19T12:37:55.000Z</time>
      </trkpt>
      <trkpt lat="45.30086" lon="4.70856">
        <ele>590.59997558594</ele>
        <time>2019-09-19T12:38:02.000Z</time>
      </trkpt>
      <trkpt lat="45.30089" lon="4.70864">
        <ele>590.20001220703</ele>
        <time>2019-09-19T12:38:07.000Z</time>
      </trkpt>
      <trkpt lat="45.30098" lon="4.70886">
        <ele>589.79998779297</ele>
        <time>2019-09-19T12:38:23.000Z</time>
      </trkpt>
      <trkpt lat="45.30103" lon="4.709">
        <ele>589.59997558594</ele>
        <time>2019-09-19T12:38:33.000Z</time>
      </trkpt>
      <trkpt lat="45.3011" lon="4.70926">
        <ele>589</ele>
        <time>2019-09-19T12:38:50.000Z</time>
      </trkpt>
      <trkpt lat="45.30117" lon="4.70951">
        <ele>588.40002441406</ele>
        <time>2019-09-19T12:39:08.000Z</time>
      </trkpt>
      <trkpt lat="45.30123" lon="4.70976">
        <ele>588.59997558594</ele>
        <time>2019-09-19T12:39:26.000Z</time>
      </trkpt>
      <trkpt lat="45.30129" lon="4.71">
        <ele>588.79998779297</ele>
        <time>2019-09-19T12:39:42.000Z</time>
      </trkpt>
      <trkpt lat="45.30135" lon="4.71023">
        <ele>588.59997558594</ele>
        <time>2019-09-19T12:39:53.000Z</time>
      </trkpt>
      <trkpt lat="45.30137" lon="4.71032">
        <ele>588.40002441406</ele>
        <time>2019-09-19T12:39:59.000Z</time>
      </trkpt>
      <trkpt lat="45.30141" lon="4.71061">
        <ele>586.59997558594</ele>
        <time>2019-09-19T12:40:19.000Z</time>
      </trkpt>
      <trkpt lat="45.30148" lon="4.71084">
        <ele>585.59997558594</ele>
        <time>2019-09-19T12:40:36.000Z</time>
      </trkpt>
      <trkpt lat="45.30164" lon="4.71096">
        <ele>584.79998779297</ele>
        <time>2019-09-19T12:40:55.000Z</time>
      </trkpt>
      <trkpt lat="45.3018" lon="4.71107">
        <ele>584</ele>
        <time>2019-09-19T12:41:13.000Z</time>
      </trkpt>
      <trkpt lat="45.3019" lon="4.71119">
        <ele>583.40002441406</ele>
        <time>2019-09-19T12:41:24.000Z</time>
      </trkpt>
      <trkpt lat="45.30201" lon="4.7114">
        <ele>582.20001220703</ele>
        <time>2019-09-19T12:41:40.000Z</time>
      </trkpt>
      <trkpt lat="45.3021" lon="4.71162">
        <ele>581</ele>
        <time>2019-09-19T12:41:56.000Z</time>
      </trkpt>
      <trkpt lat="45.30215" lon="4.71175">
        <ele>580.20001220703</ele>
        <time>2019-09-19T12:42:06.000Z</time>
      </trkpt>
      <trkpt lat="45.30217" lon="4.71181">
        <ele>579.59997558594</ele>
        <time>2019-09-19T12:42:10.000Z</time>
      </trkpt>
      <trkpt lat="45.30221" lon="4.71192">
        <ele>578.40002441406</ele>
        <time>2019-09-19T12:42:18.000Z</time>
      </trkpt>
      <trkpt lat="45.30218" lon="4.71182">
        <ele>579.20001220703</ele>
        <time>2019-09-19T12:42:54.000Z</time>
      </trkpt>
      <trkpt lat="45.30218" lon="4.7118">
        <ele>579.40002441406</ele>
        <time>2019-09-19T12:42:55.000Z</time>
      </trkpt>
      <trkpt lat="45.3022" lon="4.71156">
        <ele>580.20001220703</ele>
        <time>2019-09-19T12:43:13.000Z</time>
      </trkpt>
      <trkpt lat="45.30231" lon="4.71135">
        <ele>579.59997558594</ele>
        <time>2019-09-19T12:43:32.000Z</time>
      </trkpt>
      <trkpt lat="45.30232" lon="4.71109">
        <ele>581.20001220703</ele>
        <time>2019-09-19T12:43:48.000Z</time>
      </trkpt>
      <trkpt lat="45.30233" lon="4.71083">
        <ele>583.59997558594</ele>
        <time>2019-09-19T12:44:05.000Z</time>
      </trkpt>
      <trkpt lat="45.30238" lon="4.7106">
        <ele>585.20001220703</ele>
        <time>2019-09-19T12:44:21.000Z</time>
      </trkpt>
      <trkpt lat="45.30234" lon="4.71041">
        <ele>588.40002441406</ele>
        <time>2019-09-19T12:44:33.000Z</time>
      </trkpt>
      <trkpt lat="45.3022" lon="4.71024">
        <ele>591</ele>
        <time>2019-09-19T12:44:50.000Z</time>
      </trkpt>
      <trkpt lat="45.30219" lon="4.71017">
        <ele>591.40002441406</ele>
        <time>2019-09-19T12:44:54.000Z</time>
      </trkpt>
      <trkpt lat="45.30219" lon="4.7101">
        <ele>591.79998779297</ele>
        <time>2019-09-19T12:45:00.000Z</time>
      </trkpt>
      <trkpt lat="45.30221" lon="4.70984">
        <ele>592.79998779297</ele>
        <time>2019-09-19T12:45:19.000Z</time>
      </trkpt>
      <trkpt lat="45.3022" lon="4.70958">
        <ele>594.20001220703</ele>
        <time>2019-09-19T12:45:37.000Z</time>
      </trkpt>
      <trkpt lat="45.30217" lon="4.70933">
        <ele>596.40002441406</ele>
        <time>2019-09-19T12:45:54.000Z</time>
      </trkpt>
      <trkpt lat="45.30226" lon="4.70904">
        <ele>598.40002441406</ele>
        <time>2019-09-19T12:46:15.000Z</time>
      </trkpt>
      <trkpt lat="45.30234" lon="4.7088">
        <ele>600.40002441406</ele>
        <time>2019-09-19T12:46:33.000Z</time>
      </trkpt>
      <trkpt lat="45.3025" lon="4.70866">
        <ele>602.59997558594</ele>
        <time>2019-09-19T12:46:49.000Z</time>
      </trkpt>
      <trkpt lat="45.30257" lon="4.70853">
        <ele>605</ele>
        <time>2019-09-19T12:46:59.000Z</time>
      </trkpt>
      <trkpt lat="45.30259" lon="4.70848">
        <ele>606</ele>
        <time>2019-09-19T12:47:03.000Z</time>
      </trkpt>
      <trkpt lat="45.3027" lon="4.70819">
        <ele>610.79998779297</ele>
        <time>2019-09-19T12:47:22.000Z</time>
      </trkpt>
      <trkpt lat="45.30271" lon="4.70817">
        <ele>611</ele>
        <time>2019-09-19T12:47:23.000Z</time>
      </trkpt>
      <trkpt lat="45.30283" lon="4.70799">
        <ele>613.40002441406</ele>
        <time>2019-09-19T12:47:41.000Z</time>
      </trkpt>
      <trkpt lat="45.303" lon="4.70795">
        <ele>614.20001220703</ele>
        <time>2019-09-19T12:48:00.000Z</time>
      </trkpt>
      <trkpt lat="45.30318" lon="4.70796">
        <ele>615</ele>
        <time>2019-09-19T12:48:16.000Z</time>
      </trkpt>
      <trkpt lat="45.30337" lon="4.70797">
        <ele>615.40002441406</ele>
        <time>2019-09-19T12:48:33.000Z</time>
      </trkpt>
      <trkpt lat="45.30356" lon="4.70796">
        <ele>615.79998779297</ele>
        <time>2019-09-19T12:48:50.000Z</time>
      </trkpt>
      <trkpt lat="45.30376" lon="4.70799">
        <ele>616.20001220703</ele>
        <time>2019-09-19T12:49:07.000Z</time>
      </trkpt>
      <trkpt lat="45.30377" lon="4.70799">
        <ele>616.20001220703</ele>
        <time>2019-09-19T12:49:08.000Z</time>
      </trkpt>
      <trkpt lat="45.30383" lon="4.7079">
        <ele>616.59997558594</ele>
        <time>2019-09-19T12:49:17.000Z</time>
      </trkpt>
      <trkpt lat="45.30389" lon="4.70785">
        <ele>616.40002441406</ele>
        <time>2019-09-19T12:49:24.000Z</time>
      </trkpt>
      <trkpt lat="45.30396" lon="4.70765">
        <ele>617</ele>
        <time>2019-09-19T12:49:42.000Z</time>
      </trkpt>
      <trkpt lat="45.30395" lon="4.70781">
        <ele>616.20001220703</ele>
        <time>2019-09-19T12:50:10.000Z</time>
      </trkpt>
      <trkpt lat="45.30389" lon="4.70777">
        <ele>616.79998779297</ele>
        <time>2019-09-19T12:50:16.000Z</time>
      </trkpt>
      <trkpt lat="45.30375" lon="4.70771">
        <ele>618</ele>
        <time>2019-09-19T12:50:30.000Z</time>
      </trkpt>
      <trkpt lat="45.30369" lon="4.70768">
        <ele>618.40002441406</ele>
        <time>2019-09-19T12:50:37.000Z</time>
      </trkpt>
      <trkpt lat="45.30366" lon="4.7076">
        <ele>619</ele>
        <time>2019-09-19T12:50:44.000Z</time>
      </trkpt>
      <trkpt lat="45.30363" lon="4.70751">
        <ele>619.59997558594</ele>
        <time>2019-09-19T12:50:52.000Z</time>
      </trkpt>
      <trkpt lat="45.3036" lon="4.70725">
        <ele>621</ele>
        <time>2019-09-19T12:51:08.000Z</time>
      </trkpt>
      <trkpt lat="45.3037" lon="4.70707">
        <ele>621.40002441406</ele>
        <time>2019-09-19T12:51:24.000Z</time>
      </trkpt>
      <trkpt lat="45.30371" lon="4.70719">
        <ele>620.59997558594</ele>
        <time>2019-09-19T12:51:37.000Z</time>
      </trkpt>
      <trkpt lat="45.30374" lon="4.70744">
        <ele>619.40002441406</ele>
        <time>2019-09-19T12:52:07.000Z</time>
      </trkpt>
      <trkpt lat="45.30375" lon="4.70748">
        <ele>619</ele>
        <time>2019-09-19T12:52:10.000Z</time>
      </trkpt>
      <trkpt lat="45.30374" lon="4.70749">
        <ele>619</ele>
        <time>2019-09-19T12:53:04.000Z</time>
      </trkpt>
      <trkpt lat="45.30369" lon="4.70726">
        <ele>620.40002441406</ele>
        <time>2019-09-19T12:53:27.000Z</time>
      </trkpt>
      <trkpt lat="45.3037" lon="4.70697">
        <ele>622.20001220703</ele>
        <time>2019-09-19T12:53:55.000Z</time>
      </trkpt>
      <trkpt lat="45.30377" lon="4.70676">
        <ele>623</ele>
        <time>2019-09-19T12:54:36.000Z</time>
      </trkpt>
      <trkpt lat="45.30387" lon="4.70658">
        <ele>623</ele>
        <time>2019-09-19T12:55:01.000Z</time>
      </trkpt>
      <trkpt lat="45.30392" lon="4.70652">
        <ele>622.79998779297</ele>
        <time>2019-09-19T12:55:08.000Z</time>
      </trkpt>
      <trkpt lat="45.30407" lon="4.70632">
        <ele>621</ele>
        <time>2019-09-19T12:55:44.000Z</time>
      </trkpt>
      <trkpt lat="45.30421" lon="4.70623">
        <ele>617.59997558594</ele>
        <time>2019-09-19T12:56:01.000Z</time>
      </trkpt>
      <trkpt lat="45.30426" lon="4.706">
        <ele>617.40002441406</ele>
        <time>2019-09-19T12:56:34.000Z</time>
      </trkpt>
      <trkpt lat="45.3043" lon="4.70569">
        <ele>617.79998779297</ele>
        <time>2019-09-19T12:57:00.000Z</time>
      </trkpt>
      <trkpt lat="45.30432" lon="4.70549">
        <ele>618</ele>
        <time>2019-09-19T12:57:13.000Z</time>
      </trkpt>
      <trkpt lat="45.30436" lon="4.70524">
        <ele>618.59997558594</ele>
        <time>2019-09-19T12:57:30.000Z</time>
      </trkpt>
      <trkpt lat="45.30445" lon="4.70502">
        <ele>619.40002441406</ele>
        <time>2019-09-19T12:57:48.000Z</time>
      </trkpt>
      <trkpt lat="45.30446" lon="4.70501">
        <ele>619.20001220703</ele>
        <time>2019-09-19T12:57:50.000Z</time>
      </trkpt>
      <trkpt lat="45.30462" lon="4.70487">
        <ele>618.40002441406</ele>
        <time>2019-09-19T12:58:11.000Z</time>
      </trkpt>
      <trkpt lat="45.30462" lon="4.70487">
        <ele>618.20001220703</ele>
        <time>2019-09-19T12:58:12.000Z</time>
      </trkpt>
      <trkpt lat="45.3048" lon="4.7048">
        <ele>617.40002441406</ele>
        <time>2019-09-19T13:00:53.000Z</time>
      </trkpt>
      <trkpt lat="45.30489" lon="4.70478">
        <ele>616.79998779297</ele>
        <time>2019-09-19T13:01:04.000Z</time>
      </trkpt>
      <trkpt lat="45.30496" lon="4.70479">
        <ele>615.40002441406</ele>
        <time>2019-09-19T13:01:12.000Z</time>
      </trkpt>
      <trkpt lat="45.305" lon="4.70482">
        <ele>614.59997558594</ele>
        <time>2019-09-19T13:01:16.000Z</time>
      </trkpt>
      <trkpt lat="45.30505" lon="4.70479">
        <ele>613.79998779297</ele>
        <time>2019-09-19T13:01:21.000Z</time>
      </trkpt>
      <trkpt lat="45.30506" lon="4.70478">
        <ele>613.59997558594</ele>
        <time>2019-09-19T13:01:22.000Z</time>
      </trkpt>
      <trkpt lat="45.3052" lon="4.70479">
        <ele>610.79998779297</ele>
        <time>2019-09-19T13:01:38.000Z</time>
      </trkpt>
      <trkpt lat="45.30535" lon="4.70476">
        <ele>608</ele>
        <time>2019-09-19T13:01:52.000Z</time>
      </trkpt>
      <trkpt lat="45.30551" lon="4.70484">
        <ele>605</ele>
        <time>2019-09-19T13:02:10.000Z</time>
      </trkpt>
      <trkpt lat="45.30566" lon="4.70501">
        <ele>602.59997558594</ele>
        <time>2019-09-19T13:02:29.000Z</time>
      </trkpt>
      <trkpt lat="45.30582" lon="4.70491">
        <ele>600</ele>
        <time>2019-09-19T13:02:51.000Z</time>
      </trkpt>
      <trkpt lat="45.30601" lon="4.70492">
        <ele>597</ele>
        <time>2019-09-19T13:03:07.000Z</time>
      </trkpt>
      <trkpt lat="45.3062" lon="4.70487">
        <ele>594.20001220703</ele>
        <time>2019-09-19T13:03:25.000Z</time>
      </trkpt>
      <trkpt lat="45.30638" lon="4.70484">
        <ele>591.20001220703</ele>
        <time>2019-09-19T13:03:42.000Z</time>
      </trkpt>
      <trkpt lat="45.30655" lon="4.70486">
        <ele>587.79998779297</ele>
        <time>2019-09-19T13:04:00.000Z</time>
      </trkpt>
      <trkpt lat="45.30672" lon="4.70495">
        <ele>584.40002441406</ele>
        <time>2019-09-19T13:04:18.000Z</time>
      </trkpt>
      <trkpt lat="45.30691" lon="4.705">
        <ele>581</ele>
        <time>2019-09-19T13:04:38.000Z</time>
      </trkpt>
      <trkpt lat="45.307" lon="4.70508">
        <ele>579.20001220703</ele>
        <time>2019-09-19T13:04:49.000Z</time>
      </trkpt>
      <trkpt lat="45.30713" lon="4.70514">
        <ele>576.59997558594</ele>
        <time>2019-09-19T13:05:09.000Z</time>
      </trkpt>
      <trkpt lat="45.3073" lon="4.70515">
        <ele>573.59997558594</ele>
        <time>2019-09-19T13:05:29.000Z</time>
      </trkpt>
      <trkpt lat="45.30748" lon="4.70521">
        <ele>570.59997558594</ele>
        <time>2019-09-19T13:05:49.000Z</time>
      </trkpt>
      <trkpt lat="45.30761" lon="4.70508">
        <ele>568.79998779297</ele>
        <time>2019-09-19T13:06:06.000Z</time>
      </trkpt>
      <trkpt lat="45.30764" lon="4.70499">
        <ele>569</ele>
        <time>2019-09-19T13:06:14.000Z</time>
      </trkpt>
      <trkpt lat="45.30763" lon="4.70495">
        <ele>569.59997558594</ele>
        <time>2019-09-19T13:06:18.000Z</time>
      </trkpt>
      <trkpt lat="45.30765" lon="4.7047">
        <ele>573.20001220703</ele>
        <time>2019-09-19T13:06:38.000Z</time>
      </trkpt>
      <trkpt lat="45.30763" lon="4.70445">
        <ele>577</ele>
        <time>2019-09-19T13:06:59.000Z</time>
      </trkpt>
      <trkpt lat="45.30778" lon="4.70431">
        <ele>578.40002441406</ele>
        <time>2019-09-19T13:07:17.000Z</time>
      </trkpt>
      <trkpt lat="45.30793" lon="4.70445">
        <ele>575.59997558594</ele>
        <time>2019-09-19T13:07:37.000Z</time>
      </trkpt>
      <trkpt lat="45.30801" lon="4.70467">
        <ele>571.59997558594</ele>
        <time>2019-09-19T13:08:00.000Z</time>
      </trkpt>
      <trkpt lat="45.30807" lon="4.70491">
        <ele>567.40002441406</ele>
        <time>2019-09-19T13:08:16.000Z</time>
      </trkpt>
      <trkpt lat="45.30816" lon="4.70513">
        <ele>563.40002441406</ele>
        <time>2019-09-19T13:08:34.000Z</time>
      </trkpt>
      <trkpt lat="45.30827" lon="4.70527">
        <ele>560.20001220703</ele>
        <time>2019-09-19T13:08:54.000Z</time>
      </trkpt>
      <trkpt lat="45.30843" lon="4.70538">
        <ele>556.79998779297</ele>
        <time>2019-09-19T13:09:32.000Z</time>
      </trkpt>
      <trkpt lat="45.30859" lon="4.70545">
        <ele>554</ele>
        <time>2019-09-19T13:09:51.000Z</time>
      </trkpt>
      <trkpt lat="45.30869" lon="4.70568">
        <ele>549.40002441406</ele>
        <time>2019-09-19T13:10:05.000Z</time>
      </trkpt>
      <trkpt lat="45.30878" lon="4.70592">
        <ele>544.59997558594</ele>
        <time>2019-09-19T13:10:21.000Z</time>
      </trkpt>
      <trkpt lat="45.30882" lon="4.70617">
        <ele>540.59997558594</ele>
        <time>2019-09-19T13:10:37.000Z</time>
      </trkpt>
      <trkpt lat="45.30883" lon="4.70635">
        <ele>538.20001220703</ele>
        <time>2019-09-19T13:10:47.000Z</time>
      </trkpt>
      <trkpt lat="45.30877" lon="4.7064">
        <ele>537.59997558594</ele>
        <time>2019-09-19T13:10:52.000Z</time>
      </trkpt>
      <trkpt lat="45.30864" lon="4.70649">
        <ele>538.20001220703</ele>
        <time>2019-09-19T13:11:33.000Z</time>
      </trkpt>
      <trkpt lat="45.30874" lon="4.7065">
        <ele>536.59997558594</ele>
        <time>2019-09-19T13:11:56.000Z</time>
      </trkpt>
      <trkpt lat="45.30875" lon="4.70654">
        <ele>535.79998779297</ele>
        <time>2019-09-19T13:11:58.000Z</time>
      </trkpt>
      <trkpt lat="45.3088" lon="4.70679">
        <ele>531.59997558594</ele>
        <time>2019-09-19T13:12:10.000Z</time>
      </trkpt>
      <trkpt lat="45.3088" lon="4.70681">
        <ele>531.20001220703</ele>
        <time>2019-09-19T13:12:11.000Z</time>
      </trkpt>
      <trkpt lat="45.3088" lon="4.70688">
        <ele>530.20001220703</ele>
        <time>2019-09-19T13:12:15.000Z</time>
      </trkpt>
      <trkpt lat="45.30867" lon="4.70705">
        <ele>530</ele>
        <time>2019-09-19T13:12:29.000Z</time>
      </trkpt>
      <trkpt lat="45.30851" lon="4.70716">
        <ele>531.40002441406</ele>
        <time>2019-09-19T13:12:43.000Z</time>
      </trkpt>
      <trkpt lat="45.30836" lon="4.70733">
        <ele>531.79998779297</ele>
        <time>2019-09-19T13:12:59.000Z</time>
      </trkpt>
      <trkpt lat="45.30836" lon="4.70734">
        <ele>531.79998779297</ele>
        <time>2019-09-19T13:13:00.000Z</time>
      </trkpt>
      <trkpt lat="45.30833" lon="4.70749">
        <ele>530.40002441406</ele>
        <time>2019-09-19T13:13:11.000Z</time>
      </trkpt>
      <trkpt lat="45.30831" lon="4.7077">
        <ele>527.79998779297</ele>
        <time>2019-09-19T13:13:24.000Z</time>
      </trkpt>
      <trkpt lat="45.3083" lon="4.70775">
        <ele>527.40002441406</ele>
        <time>2019-09-19T13:13:27.000Z</time>
      </trkpt>
      <trkpt lat="45.30829" lon="4.70781">
        <ele>526.79998779297</ele>
        <time>2019-09-19T13:13:31.000Z</time>
      </trkpt>
      <trkpt lat="45.30827" lon="4.70792">
        <ele>525.79998779297</ele>
        <time>2019-09-19T13:13:38.000Z</time>
      </trkpt>
      <trkpt lat="45.30827" lon="4.70804">
        <ele>524.79998779297</ele>
        <time>2019-09-19T13:13:46.000Z</time>
      </trkpt>
      <trkpt lat="45.3083" lon="4.70827">
        <ele>522.20001220703</ele>
        <time>2019-09-19T13:14:01.000Z</time>
      </trkpt>
    </trkseg>
  </trk>
</gpx>